METAR stanice u blizini

 

LYBE - Beograd / Surčin, Srbija
Ažurirano: 25/04/2024 14:00
Mostly Cloudy
Mostly Cloudy
 Pravac vetra varies
Vetar: varies 7 km/h
Temperatura: 13°C
Tačka rose: 4°C
Vlažnost: 55%
Pritisak: 1009 hPa
Oblaci: Mostly Cloudy
Vidljivost: 10 km
Cloud details: Mostly Cloudy 1219 m
2024/04/25 12:00 LYBE 251200Z VRB04KT 9999 BKN040 13/04 Q1009 NOSIG
LYBT - Beograd / Batajnica, Srbija
Ažurirano: 25/04/2024 14:00
Mostly Cloudy
Mostly Cloudy
 Pravac vetra varies
Vetar: varies 4 km/h
Temperatura: 13°C
Tačka rose: 5°C
Vlažnost: 59%
Pritisak: 1009 hPa
Oblaci: Mostly Cloudy
Vidljivost: 10 km
Cloud details: Mostly Cloudy 1372 m
2024/04/25 12:00 LYBT 251200Z VRB02KT 9999 BKN045 13/05 Q1009 NOSIG
LYVR - Vršac, Srbija
Ažurirano: 25/04/2024 14:00
Mostly Cloudy
Mostly Cloudy
 Pravac vetra ISI
Vetar: ISI 7 km/h
Temperatura: 12°C
Tačka rose: 7°C
Vlažnost: 72%
Pritisak: 1009 hPa
Oblaci: Mostly Cloudy
Vidljivost: 10 km
Cloud details: Few Clouds 914 m
Mostly Cloudy 1219 m
2024/04/25 12:00 LYVR 251200Z 06004KT 340V130 9999 FEW030 BKN040 12/07 Q1009 NOSIG
 
LYKV - Lađevci, Srbija
Ažurirano: 25/04/2024 14:00
Partly Cloudy
Partly Cloudy
 Pravac vetra varies
Vetar: varies 2 km/h
Temperatura: 12°C
Tačka rose: 6°C
Vlažnost: 67%
Pritisak: 1008 hPa
Oblaci: Partly Cloudy
Vidljivost: 10 km
Cloud details: Partly Cloudy 610 m
2024/04/25 12:00 LYKV 251200Z VRB01KT 9999 SCT020 12/06 Q1008 NOSIG
LYNI - Niš, Srbija
Ažurirano: 25/04/2024 14:00
Slaba kiša, Pretežno oblačno
Slaba kiša, Pretežno oblačno
 Pravac vetra SZ
Vetar: SZ 17 km/h
Temperatura: 12°C
Tačka rose: 7°C
Vlažnost: 72%
Pritisak: 1008 hPa
Pregled: Light Rain
Oblaci: Mostly Cloudy
Vidljivost: 10 km
Cloud details: Mostly Cloudy 823 m
2024/04/25 12:00 LYNI 251200Z 32009KT 290V010 9999 -RA BKN027 12/07 Q1008 NOSIG
BKPR - Priština, Srbija
Ažurirano: 25/04/2024 14:00
Mostly Cloudy
Mostly Cloudy
 Pravac vetra S
Vetar: S 7 km/h
Temperatura: 11°C
Tačka rose: 6°C
Vlažnost: 72%
Pritisak: 1007 hPa
Oblaci: Mostly Cloudy
Vidljivost: 10 km
Cloud details: Few Clouds 610 m
Mostly Cloudy 762 m
2024/04/25 12:00 BKPR 251200Z 36004KT 9999 FEW020 BKN025 11/06 Q1007 NOSIG
 
LHPP - Pecs / Pogany, Hungary
Ažurirano: 25/04/2024 13:45
Mostly Cloudy
Mostly Cloudy
 Pravac vetra varies
Vetar: varies 6 km/h
Temperatura: 11°C
Tačka rose: 2°C
Vlažnost: 54%
Pritisak: 1009 hPa
Oblaci: Mostly Cloudy
Vidljivost: 10 km
Cloud details: Few Clouds 1158 m
Mostly Cloudy 2164 m
2024/04/25 11:45 LHPP 251145Z AUTO VRB03KT 9999 FEW038 BKN071 11/02 Q1009
LHUD - Szeged, Hungary
Ažurirano: 04/07/2019 01:45
NOT Current
Vedro
Vedro
 Pravac vetra S
Vetar: S 7 km/h
Temperatura: 18°C
Tačka rose: 13°C
Vlažnost: 73%
Pritisak: 1019 hPa
Pregled: Vedro
Vidljivost: greater than 10 km
2019/07/03 23:45 LHUD 032345Z 35004KT CAVOK 18/13 Q1019
LRTR - Timisoara, Romania
Ažurirano: 25/04/2024 13:30
Partly Cloudy
Partly Cloudy
 Pravac vetra SSZ
Vetar: SSZ 13 km/h
Temperatura: 13°C
Tačka rose: 2°C
Vlažnost: 47%
Pritisak: 1008 hPa
Oblaci: Partly Cloudy
Vidljivost: 10 km
Cloud details: Partly Cloudy 1189 m
2024/04/25 11:30 LRTR 251130Z 33007KT 300V360 9999 SCT039 13/02 Q1008 NOSIG
 
LRCV - Craiova, Romania
Ažurirano: 25/04/2024 13:30
Slaba kiša, Delimično oblačno
Slaba kiša, Delimično oblačno
 Pravac vetra SZ
Vetar: SZ 11 km/h
Temperatura: 10°C
Osećaj hladnoće: 8°C
Tačka rose: 10°C
Vlažnost: 100%
Pritisak: 1006 hPa
Pregled: Light Rain
Oblaci: Partly Cloudy
Vidljivost: 6 km
Cloud details: Partly Cloudy 122 m
2024/04/25 11:30 LRCV 251130Z 31006KT 6000 -RA SCT004 10/10 Q1006 RERA
LBSF - Sofia, Bulgaria
Ažurirano: 25/04/2024 14:00
Slaba kiša, Oblačno
Slaba kiša, Oblačno
 Pravac vetra Z
Vetar: Z 20 km/h
Temperatura: 11°C
Tačka rose: 8°C
Vlažnost: 82%
Pritisak: 1006 hPa
Pregled: Light Rain
Oblaci: Oblačno
Vidljivost: 10 km
Cloud details: Few Clouds 366 m
Partly Cloudy 792 m
Oblačno 2438 m
2024/04/25 12:00 LBSF 251200Z 27011KT 9999 -RA FEW012 SCT026 OVC080 11/08 Q1006 NOSIG
LWSK - Skoplje, Makedonija
Ažurirano: 25/04/2024 13:50
Slaba kiša, Pretežno oblačno
Slaba kiša, Pretežno oblačno
 Pravac vetra SI
Vetar: SI 6 km/h
Temperatura: 13°C
Tačka rose: 10°C
Vlažnost: 82%
Pritisak: 1007 hPa
Pregled: Light Rain
Oblaci: Mostly Cloudy
Vidljivost: 10 km
Cloud details: Partly Cloudy 732 m
Mostly Cloudy 914 m
Mostly Cloudy 2743 m
2024/04/25 11:50 LWSK 251150Z 04003KT 360V070 9999 -RA SCT024 BKN030 BKN090 13/10 Q1007 NOSIG
 
LYPG - Podgorica, Crna Gora
Ažurirano: 25/04/2024 14:00
Few Clouds
Few Clouds
 Pravac vetra JJI
Vetar: JJI 13 km/h
Temperatura: 17°C
Tačka rose: 7°C
Vlažnost: 52%
Pritisak: 1007 hPa
Oblaci: Few Clouds
Vidljivost: 10 km
Cloud details: Few Clouds 823 m
2024/04/25 12:00 LYPG 251200Z 16007KT 120V210 9999 FEW027TCU 17/07 Q1007 NOSIG
LQSA - Sarajevo, Bosna i Hercegovina
Ažurirano: 25/04/2024 14:00
Partly Cloudy
Partly Cloudy
 Pravac vetra varies
Vetar: varies 6 km/h
Temperatura: 14°C
Tačka rose: 3°C
Vlažnost: 48%
Pritisak: 1006 hPa
Oblaci: Partly Cloudy
Vidljivost: 10 km
Cloud details: Partly Cloudy 1524 m
2024/04/25 12:00 LQSA 251200Z VRB03KT 9999 SCT050 14/03 Q1006 NOSIG
LDOS - Osijek, Hrvatksa
Ažurirano: 25/04/2024 14:00
Mostly Cloudy
Mostly Cloudy
 Pravac vetra varies
Vetar: varies 6 km/h
Temperatura: 13°C
Tačka rose: 2°C
Vlažnost: 47%
Pritisak: 1009 hPa
Oblaci: Mostly Cloudy
Vidljivost: 10 km
Cloud details: Few Clouds 914 m
Mostly Cloudy 1128 m
2024/04/25 12:00 LDOS 251200Z VRB03KT 9999 FEW030 BKN037 13/02 Q1009